Terminal Aerodrome Forecast
Issued by NWS

Home | Current Version | Previous Version | Graphics & Text | Print | Product List | Glossary On
Versions: 1 2 3 4 5 6 7 8 9 10 11 12 13 14 15 16 17 18
221
FTUS43 KLSX 132323
TAFUIN
TAF
KUIN 132323Z 1400/1424 09005KT P6SM OVC070
     FM140500 12009KT 5SM -SN OVC035
     FM141000 13013KT 2SM -SN OVC030
     FM141400 14015KT 1SM -SN OVC015
     FM141700 15013KT 3SM -SN OVC020
     FM142100 16010KT P6SM OVC010=

USA.gov is the U.S. government's official web portal to all federal, state and local government web resources and services.